sensor_id;sensor_type;location;lat;lon;timestamp;temperature;humidity
11083;DHT22;5595;50.186;8.468;2022-10-17T00:01:47;13.30;99.90
11083;DHT22;5595;50.186;8.468;2022-10-17T00:04:14;13.30;99.90
11083;DHT22;5595;50.186;8.468;2022-10-17T00:06:42;13.30;99.90
11083;DHT22;5595;50.186;8.468;2022-10-17T00:09:09;13.30;99.90
11083;DHT22;5595;50.186;8.468;2022-10-17T00:11:36;13.30;99.90
11083;DHT22;5595;50.186;8.468;2022-10-17T00:14:03;13.30;99.90
11083;DHT22;5595;50.186;8.468;2022-10-17T00:16:32;13.30;99.90
11083;DHT22;5595;50.186;8.468;2022-10-17T00:19:01;13.30;99.90
11083;DHT22;5595;50.186;8.468;2022-10-17T00:21:28;13.30;99.90
11083;DHT22;5595;50.186;8.468;2022-10-17T00:23:56;13.30;99.90
11083;DHT22;5595;50.186;8.468;2022-10-17T00:26:24;13.30;99.90
11083;DHT22;5595;50.186;8.468;2022-10-17T00:28:52;13.40;99.90
11083;DHT22;5595;50.186;8.468;2022-10-17T00:31:21;13.40;99.90
11083;DHT22;5595;50.186;8.468;2022-10-17T00:33:48;13.40;99.90
11083;DHT22;5595;50.186;8.468;2022-10-17T00:36:17;13.40;99.90
11083;DHT22;5595;50.186;8.468;2022-10-17T00:38:46;13.40;99.90
11083;DHT22;5595;50.186;8.468;2022-10-17T00:41:18;13.40;99.90
11083;DHT22;5595;50.186;8.468;2022-10-17T00:43:51;13.50;99.90
11083;DHT22;5595;50.186;8.468;2022-10-17T00:46:19;13.50;99.90
11083;DHT22;5595;50.186;8.468;2022-10-17T00:48:47;13.50;99.90
11083;DHT22;5595;50.186;8.468;2022-10-17T00:51:15;13.50;99.90
11083;DHT22;5595;50.186;8.468;2022-10-17T00:53:45;13.50;99.90
11083;DHT22;5595;50.186;8.468;2022-10-17T00:56:12;13.50;99.90
11083;DHT22;5595;50.186;8.468;2022-10-17T00:58:40;13.50;99.90
11083;DHT22;5595;50.186;8.468;2022-10-17T01:01:07;13.40;99.90
11083;DHT22;5595;50.186;8.468;2022-10-17T01:03:37;13.40;99.90
11083;DHT22;5595;50.186;8.468;2022-10-17T01:06:06;13.40;99.90
11083;DHT22;5595;50.186;8.468;2022-10-17T01:08:33;13.40;99.90
11083;DHT22;5595;50.186;8.468;2022-10-17T01:11:06;13.40;99.90
11083;DHT22;5595;50.186;8.468;2022-10-17T01:13:43;13.30;99.90
11083;DHT22;5595;50.186;8.468;2022-10-17T01:16:13;13.30;99.90
11083;DHT22;5595;50.186;8.468;2022-10-17T01:18:54;13.30;99.90
11083;DHT22;5595;50.186;8.468;2022-10-17T01:21:31;13.30;99.90
11083;DHT22;5595;50.186;8.468;2022-10-17T01:24:25;13.30;99.90
11083;DHT22;5595;50.186;8.468;2022-10-17T01:27:17;13.30;99.90
11083;DHT22;5595;50.186;8.468;2022-10-17T01:30:01;13.30;99.90
11083;DHT22;5595;50.186;8.468;2022-10-17T01:32:34;13.20;99.90
11083;DHT22;5595;50.186;8.468;2022-10-17T01:35:07;13.20;99.90
11083;DHT22;5595;50.186;8.468;2022-10-17T01:37:42;13.20;99.90
11083;DHT22;5595;50.186;8.468;2022-10-17T01:40:15;13.20;99.90
11083;DHT22;5595;50.186;8.468;2022-10-17T01:42:50;13.10;99.90
11083;DHT22;5595;50.186;8.468;2022-10-17T01:45:22;13.10;99.90
11083;DHT22;5595;50.186;8.468;2022-10-17T01:47:53;13.10;99.90
11083;DHT22;5595;50.186;8.468;2022-10-17T01:50:27;13.10;99.90
11083;DHT22;5595;50.186;8.468;2022-10-17T01:52:59;13.00;99.90
11083;DHT22;5595;50.186;8.468;2022-10-17T01:55:30;13.00;99.90
11083;DHT22;5595;50.186;8.468;2022-10-17T01:58:01;13.00;99.90
11083;DHT22;5595;50.186;8.468;2022-10-17T02:00:29;13.00;99.90
11083;DHT22;5595;50.186;8.468;2022-10-17T02:02:59;13.10;99.90
11083;DHT22;5595;50.186;8.468;2022-10-17T02:05:30;13.10;99.90
11083;DHT22;5595;50.186;8.468;2022-10-17T02:07:59;13.00;99.90
11083;DHT22;5595;50.186;8.468;2022-10-17T02:10:34;13.00;99.90
11083;DHT22;5595;50.186;8.468;2022-10-17T02:13:09;13.00;99.90
11083;DHT22;5595;50.186;8.468;2022-10-17T02:15:50;13.00;99.90
11083;DHT22;5595;50.186;8.468;2022-10-17T02:18:38;13.00;99.90
11083;DHT22;5595;50.186;8.468;2022-10-17T02:21:14;13.00;99.90
11083;DHT22;5595;50.186;8.468;2022-10-17T02:23:50;13.00;99.90
11083;DHT22;5595;50.186;8.468;2022-10-17T02:26:20;13.00;99.90
11083;DHT22;5595;50.186;8.468;2022-10-17T02:28:58;13.00;99.90
11083;DHT22;5595;50.186;8.468;2022-10-17T02:31:32;13.00;99.90
11083;DHT22;5595;50.186;8.468;2022-10-17T02:34:02;13.00;99.90
11083;DHT22;5595;50.186;8.468;2022-10-17T02:36:35;12.90;99.90
11083;DHT22;5595;50.186;8.468;2022-10-17T02:39:05;12.90;99.90
11083;DHT22;5595;50.186;8.468;2022-10-17T02:41:34;12.90;99.90
11083;DHT22;5595;50.186;8.468;2022-10-17T02:44:03;12.90;99.90
11083;DHT22;5595;50.186;8.468;2022-10-17T02:46:31;12.90;99.90
11083;DHT22;5595;50.186;8.468;2022-10-17T02:49:04;12.90;99.90
11083;DHT22;5595;50.186;8.468;2022-10-17T02:51:38;12.90;99.90
11083;DHT22;5595;50.186;8.468;2022-10-17T02:54:09;12.90;99.90
11083;DHT22;5595;50.186;8.468;2022-10-17T02:56:41;12.90;99.90
11083;DHT22;5595;50.186;8.468;2022-10-17T02:59:11;12.90;99.90
11083;DHT22;5595;50.186;8.468;2022-10-17T03:01:40;12.80;99.90
11083;DHT22;5595;50.186;8.468;2022-10-17T03:04:10;12.80;99.90
11083;DHT22;5595;50.186;8.468;2022-10-17T03:06:39;12.90;99.90
11083;DHT22;5595;50.186;8.468;2022-10-17T03:09:08;12.80;99.90
11083;DHT22;5595;50.186;8.468;2022-10-17T03:11:35;12.80;99.90
11083;DHT22;5595;50.186;8.468;2022-10-17T03:14:02;12.80;99.90
11083;DHT22;5595;50.186;8.468;2022-10-17T03:16:29;12.80;99.90
11083;DHT22;5595;50.186;8.468;2022-10-17T03:18:56;12.80;99.90
11083;DHT22;5595;50.186;8.468;2022-10-17T03:21:26;12.80;99.90
11083;DHT22;5595;50.186;8.468;2022-10-17T03:23:53;12.90;99.90
11083;DHT22;5595;50.186;8.468;2022-10-17T03:26:20;12.90;99.90
11083;DHT22;5595;50.186;8.468;2022-10-17T03:28:47;12.90;99.90
11083;DHT22;5595;50.186;8.468;2022-10-17T03:31:15;12.90;99.90
11083;DHT22;5595;50.186;8.468;2022-10-17T03:33:42;12.90;99.90
11083;DHT22;5595;50.186;8.468;2022-10-17T03:36:10;12.90;99.90
11083;DHT22;5595;50.186;8.468;2022-10-17T03:38:39;12.80;99.90
11083;DHT22;5595;50.186;8.468;2022-10-17T03:41:06;12.90;99.90
11083;DHT22;5595;50.186;8.468;2022-10-17T03:43:33;12.80;99.90
11083;DHT22;5595;50.186;8.468;2022-10-17T03:46:00;12.80;99.90
11083;DHT22;5595;50.186;8.468;2022-10-17T03:48:28;12.80;99.90
11083;DHT22;5595;50.186;8.468;2022-10-17T03:50:57;12.80;99.90
11083;DHT22;5595;50.186;8.468;2022-10-17T03:53:24;12.80;99.90
11083;DHT22;5595;50.186;8.468;2022-10-17T03:55:53;12.80;99.90
11083;DHT22;5595;50.186;8.468;2022-10-17T03:58:19;12.80;99.90
11083;DHT22;5595;50.186;8.468;2022-10-17T04:00:46;12.90;99.90
11083;DHT22;5595;50.186;8.468;2022-10-17T04:03:13;12.90;99.90
11083;DHT22;5595;50.186;8.468;2022-10-17T04:05:40;12.80;99.90
11083;DHT22;5595;50.186;8.468;2022-10-17T04:08:07;12.80;99.90
11083;DHT22;5595;50.186;8.468;2022-10-17T04:10:34;12.80;99.90
11083;DHT22;5595;50.186;8.468;2022-10-17T04:13:02;12.90;99.90
11083;DHT22;5595;50.186;8.468;2022-10-17T04:15:30;12.90;99.90
11083;DHT22;5595;50.186;8.468;2022-10-17T04:17:57;12.90;99.90
11083;DHT22;5595;50.186;8.468;2022-10-17T04:20:24;12.90;99.90
11083;DHT22;5595;50.186;8.468;2022-10-17T04:22:51;13.00;99.90
11083;DHT22;5595;50.186;8.468;2022-10-17T04:25:18;13.00;99.90
11083;DHT22;5595;50.186;8.468;2022-10-17T04:27:45;13.00;99.90
11083;DHT22;5595;50.186;8.468;2022-10-17T04:30:15;13.00;99.90
11083;DHT22;5595;50.186;8.468;2022-10-17T04:32:42;12.90;99.90
11083;DHT22;5595;50.186;8.468;2022-10-17T04:35:09;13.00;99.90
11083;DHT22;5595;50.186;8.468;2022-10-17T04:37:36;13.00;99.90
11083;DHT22;5595;50.186;8.468;2022-10-17T04:40:03;12.90;99.90
11083;DHT22;5595;50.186;8.468;2022-10-17T04:42:30;13.00;99.90
11083;DHT22;5595;50.186;8.468;2022-10-17T04:44:57;13.00;99.90
11083;DHT22;5595;50.186;8.468;2022-10-17T04:47:25;13.00;99.90
11083;DHT22;5595;50.186;8.468;2022-10-17T04:49:52;13.00;99.90
11083;DHT22;5595;50.186;8.468;2022-10-17T04:52:18;13.00;99.90
11083;DHT22;5595;50.186;8.468;2022-10-17T04:54:45;13.00;99.90
11083;DHT22;5595;50.186;8.468;2022-10-17T04:57:12;13.00;99.90
11083;DHT22;5595;50.186;8.468;2022-10-17T04:59:39;13.00;99.90
11083;DHT22;5595;50.186;8.468;2022-10-17T05:02:06;12.90;99.90
11083;DHT22;5595;50.186;8.468;2022-10-17T05:04:35;12.90;99.90
11083;DHT22;5595;50.186;8.468;2022-10-17T05:07:02;13.00;99.90
11083;DHT22;5595;50.186;8.468;2022-10-17T05:09:29;13.00;99.90
11083;DHT22;5595;50.186;8.468;2022-10-17T05:11:56;13.00;99.90
11083;DHT22;5595;50.186;8.468;2022-10-17T05:14:23;13.00;99.90
11083;DHT22;5595;50.186;8.468;2022-10-17T05:16:50;13.00;99.90
11083;DHT22;5595;50.186;8.468;2022-10-17T05:19:16;13.00;99.90
11083;DHT22;5595;50.186;8.468;2022-10-17T05:21:45;13.00;99.90
11083;DHT22;5595;50.186;8.468;2022-10-17T05:24:13;13.00;99.90
11083;DHT22;5595;50.186;8.468;2022-10-17T05:26:40;13.00;99.90
11083;DHT22;5595;50.186;8.468;2022-10-17T05:29:06;13.00;99.90
11083;DHT22;5595;50.186;8.468;2022-10-17T05:31:34;13.00;99.90
11083;DHT22;5595;50.186;8.468;2022-10-17T05:34:02;12.90;99.90
11083;DHT22;5595;50.186;8.468;2022-10-17T05:36:29;12.90;99.90
11083;DHT22;5595;50.186;8.468;2022-10-17T05:38:57;12.80;99.90
11083;DHT22;5595;50.186;8.468;2022-10-17T05:41:24;12.80;99.90
11083;DHT22;5595;50.186;8.468;2022-10-17T05:43:51;12.90;99.90
11083;DHT22;5595;50.186;8.468;2022-10-17T05:46:17;12.80;99.90
11083;DHT22;5595;50.186;8.468;2022-10-17T05:48:44;12.80;99.90
11083;DHT22;5595;50.186;8.468;2022-10-17T05:51:11;12.80;99.90
11083;DHT22;5595;50.186;8.468;2022-10-17T05:53:41;12.80;99.90
11083;DHT22;5595;50.186;8.468;2022-10-17T05:56:11;12.80;99.90
11083;DHT22;5595;50.186;8.468;2022-10-17T05:58:40;12.80;99.90
11083;DHT22;5595;50.186;8.468;2022-10-17T06:01:07;12.80;99.90
11083;DHT22;5595;50.186;8.468;2022-10-17T06:03:34;12.80;99.90
11083;DHT22;5595;50.186;8.468;2022-10-17T06:06:04;12.90;99.90
11083;DHT22;5595;50.186;8.468;2022-10-17T06:08:32;12.90;99.90
11083;DHT22;5595;50.186;8.468;2022-10-17T06:10:59;12.80;99.90
11083;DHT22;5595;50.186;8.468;2022-10-17T06:13:28;12.80;99.90
11083;DHT22;5595;50.186;8.468;2022-10-17T06:15:55;12.80;99.90
11083;DHT22;5595;50.186;8.468;2022-10-17T06:18:22;12.90;99.90
11083;DHT22;5595;50.186;8.468;2022-10-17T06:20:49;12.90;99.90
11083;DHT22;5595;50.186;8.468;2022-10-17T06:23:17;12.90;99.90
11083;DHT22;5595;50.186;8.468;2022-10-17T06:25:44;13.00;99.90
11083;DHT22;5595;50.186;8.468;2022-10-17T06:28:11;13.10;99.90
11083;DHT22;5595;50.186;8.468;2022-10-17T06:30:39;13.10;99.90
11083;DHT22;5595;50.186;8.468;2022-10-17T06:33:06;13.10;99.90
11083;DHT22;5595;50.186;8.468;2022-10-17T06:35:33;13.20;99.90
11083;DHT22;5595;50.186;8.468;2022-10-17T06:38:00;13.10;99.90
11083;DHT22;5595;50.186;8.468;2022-10-17T06:40:27;13.20;99.90
11083;DHT22;5595;50.186;8.468;2022-10-17T06:42:55;13.20;99.90
11083;DHT22;5595;50.186;8.468;2022-10-17T06:45:22;13.20;99.90
11083;DHT22;5595;50.186;8.468;2022-10-17T06:47:51;13.20;99.90
11083;DHT22;5595;50.186;8.468;2022-10-17T06:50:18;13.20;99.90
11083;DHT22;5595;50.186;8.468;2022-10-17T06:52:45;13.30;99.90
11083;DHT22;5595;50.186;8.468;2022-10-17T06:55:12;13.30;99.90
11083;DHT22;5595;50.186;8.468;2022-10-17T06:57:39;13.40;99.90
11083;DHT22;5595;50.186;8.468;2022-10-17T07:00:07;13.50;99.90
11083;DHT22;5595;50.186;8.468;2022-10-17T07:02:38;13.60;99.90
11083;DHT22;5595;50.186;8.468;2022-10-17T07:05:08;13.60;99.90
11083;DHT22;5595;50.186;8.468;2022-10-17T07:07:36;13.70;99.90
11083;DHT22;5595;50.186;8.468;2022-10-17T07:10:03;13.70;99.90
11083;DHT22;5595;50.186;8.468;2022-10-17T07:12:34;13.80;99.90
11083;DHT22;5595;50.186;8.468;2022-10-17T07:15:02;13.90;99.90
11083;DHT22;5595;50.186;8.468;2022-10-17T07:17:30;14.00;99.90
11083;DHT22;5595;50.186;8.468;2022-10-17T07:19:57;14.10;99.90
11083;DHT22;5595;50.186;8.468;2022-10-17T07:22:25;14.10;99.90
11083;DHT22;5595;50.186;8.468;2022-10-17T07:24:52;14.20;99.90
11083;DHT22;5595;50.186;8.468;2022-10-17T07:27:22;14.30;99.90
11083;DHT22;5595;50.186;8.468;2022-10-17T07:29:49;14.40;99.90
11083;DHT22;5595;50.186;8.468;2022-10-17T07:32:17;14.50;99.90
11083;DHT22;5595;50.186;8.468;2022-10-17T07:34:44;14.50;99.90
11083;DHT22;5595;50.186;8.468;2022-10-17T07:37:11;14.60;99.90
11083;DHT22;5595;50.186;8.468;2022-10-17T07:39:40;14.70;99.90
11083;DHT22;5595;50.186;8.468;2022-10-17T07:42:08;14.80;99.90
11083;DHT22;5595;50.186;8.468;2022-10-17T07:44:35;14.90;99.90
11083;DHT22;5595;50.186;8.468;2022-10-17T07:47:02;15.10;99.90
11083;DHT22;5595;50.186;8.468;2022-10-17T07:49:30;15.10;99.90
11083;DHT22;5595;50.186;8.468;2022-10-17T07:51:57;15.30;99.90
11083;DHT22;5595;50.186;8.468;2022-10-17T07:54:24;15.40;99.90
11083;DHT22;5595;50.186;8.468;2022-10-17T07:56:53;15.50;99.90
11083;DHT22;5595;50.186;8.468;2022-10-17T07:59:20;15.70;99.90
11083;DHT22;5595;50.186;8.468;2022-10-17T08:01:47;15.80;99.90
11083;DHT22;5595;50.186;8.468;2022-10-17T08:04:14;15.90;99.90
11083;DHT22;5595;50.186;8.468;2022-10-17T08:06:42;16.00;99.90
11083;DHT22;5595;50.186;8.468;2022-10-17T08:09:10;16.10;99.90
11083;DHT22;5595;50.186;8.468;2022-10-17T08:11:39;16.10;99.90
11083;DHT22;5595;50.186;8.468;2022-10-17T08:14:10;16.10;99.90
11083;DHT22;5595;50.186;8.468;2022-10-17T08:16:38;16.10;99.90
11083;DHT22;5595;50.186;8.468;2022-10-17T08:19:06;16.10;99.90
11083;DHT22;5595;50.186;8.468;2022-10-17T08:21:34;16.10;99.90
11083;DHT22;5595;50.186;8.468;2022-10-17T08:24:02;16.10;99.90
11083;DHT22;5595;50.186;8.468;2022-10-17T08:26:30;16.10;99.90
11083;DHT22;5595;50.186;8.468;2022-10-17T08:28:57;16.10;99.90
11083;DHT22;5595;50.186;8.468;2022-10-17T08:31:27;16.10;99.90
11083;DHT22;5595;50.186;8.468;2022-10-17T08:33:54;16.20;99.90
11083;DHT22;5595;50.186;8.468;2022-10-17T08:36:21;16.20;99.90
11083;DHT22;5595;50.186;8.468;2022-10-17T08:38:48;16.30;99.90
11083;DHT22;5595;50.186;8.468;2022-10-17T08:41:29;16.30;99.90
11083;DHT22;5595;50.186;8.468;2022-10-17T08:44:08;16.40;99.90
11083;DHT22;5595;50.186;8.468;2022-10-17T08:46:41;16.50;99.90
11083;DHT22;5595;50.186;8.468;2022-10-17T08:49:12;16.60;99.90
11083;DHT22;5595;50.186;8.468;2022-10-17T08:51:46;16.70;99.90
11083;DHT22;5595;50.186;8.468;2022-10-17T08:54:18;16.70;99.90
11083;DHT22;5595;50.186;8.468;2022-10-17T08:56:48;16.80;99.90
11083;DHT22;5595;50.186;8.468;2022-10-17T08:59:19;16.90;99.90
11083;DHT22;5595;50.186;8.468;2022-10-17T09:01:53;16.90;99.90
11083;DHT22;5595;50.186;8.468;2022-10-17T09:04:45;16.90;99.90
11083;DHT22;5595;50.186;8.468;2022-10-17T09:07:20;16.90;99.90
11083;DHT22;5595;50.186;8.468;2022-10-17T09:09:57;17.00;99.90
11083;DHT22;5595;50.186;8.468;2022-10-17T09:12:33;17.00;99.90
11083;DHT22;5595;50.186;8.468;2022-10-17T09:15:41;17.10;99.90
11083;DHT22;5595;50.186;8.468;2022-10-17T09:18:14;17.20;99.90
11083;DHT22;5595;50.186;8.468;2022-10-17T09:20:46;17.30;99.90
11083;DHT22;5595;50.186;8.468;2022-10-17T09:23:18;17.40;99.90
11083;DHT22;5595;50.186;8.468;2022-10-17T09:25:48;17.50;99.90
11083;DHT22;5595;50.186;8.468;2022-10-17T09:28:24;17.50;99.90
11083;DHT22;5595;50.186;8.468;2022-10-17T09:30:56;17.50;99.90
11083;DHT22;5595;50.186;8.468;2022-10-17T09:33:29;17.60;99.90
11083;DHT22;5595;50.186;8.468;2022-10-17T09:35:59;17.60;99.90
11083;DHT22;5595;50.186;8.468;2022-10-17T09:38:36;17.70;99.90
11083;DHT22;5595;50.186;8.468;2022-10-17T09:41:10;17.70;99.90
11083;DHT22;5595;50.186;8.468;2022-10-17T09:43:43;17.80;99.90
11083;DHT22;5595;50.186;8.468;2022-10-17T09:46:20;17.80;99.90
11083;DHT22;5595;50.186;8.468;2022-10-17T09:48:55;17.80;99.90
11083;DHT22;5595;50.186;8.468;2022-10-17T09:51:25;17.90;99.90
11083;DHT22;5595;50.186;8.468;2022-10-17T09:53:55;17.90;99.90
11083;DHT22;5595;50.186;8.468;2022-10-17T09:56:23;18.00;99.90
11083;DHT22;5595;50.186;8.468;2022-10-17T09:58:54;18.00;99.90
11083;DHT22;5595;50.186;8.468;2022-10-17T10:01:23;18.10;99.90
11083;DHT22;5595;50.186;8.468;2022-10-17T10:04:09;18.10;99.90
11083;DHT22;5595;50.186;8.468;2022-10-17T10:06:37;18.10;99.90
11083;DHT22;5595;50.186;8.468;2022-10-17T10:09:05;18.20;99.90
11083;DHT22;5595;50.186;8.468;2022-10-17T10:11:45;18.20;99.90
11083;DHT22;5595;50.186;8.468;2022-10-17T10:14:20;18.20;99.90
11083;DHT22;5595;50.186;8.468;2022-10-17T10:16:49;18.30;99.90
11083;DHT22;5595;50.186;8.468;2022-10-17T10:19:27;18.30;99.90
11083;DHT22;5595;50.186;8.468;2022-10-17T10:21:57;18.30;99.90
11083;DHT22;5595;50.186;8.468;2022-10-17T10:24:25;18.30;99.90
11083;DHT22;5595;50.186;8.468;2022-10-17T10:26:54;18.40;99.90
11083;DHT22;5595;50.186;8.468;2022-10-17T10:29:26;18.50;99.90
11083;DHT22;5595;50.186;8.468;2022-10-17T10:31:56;18.50;99.90
11083;DHT22;5595;50.186;8.468;2022-10-17T10:34:28;18.50;99.90
11083;DHT22;5595;50.186;8.468;2022-10-17T10:37:00;18.40;99.90
11083;DHT22;5595;50.186;8.468;2022-10-17T10:39:41;18.50;99.90
11083;DHT22;5595;50.186;8.468;2022-10-17T10:42:22;18.50;99.90
11083;DHT22;5595;50.186;8.468;2022-10-17T10:44:51;18.30;99.90
11083;DHT22;5595;50.186;8.468;2022-10-17T10:47:23;18.30;99.90
11083;DHT22;5595;50.186;8.468;2022-10-17T10:50:21;18.30;99.90
11083;DHT22;5595;50.186;8.468;2022-10-17T10:53:06;18.30;99.90
11083;DHT22;5595;50.186;8.468;2022-10-17T10:55:40;18.20;99.90
11083;DHT22;5595;50.186;8.468;2022-10-17T10:58:30;18.30;99.90
11083;DHT22;5595;50.186;8.468;2022-10-17T11:01:03;18.20;99.90
11083;DHT22;5595;50.186;8.468;2022-10-17T11:03:36;18.30;99.90
11083;DHT22;5595;50.186;8.468;2022-10-17T11:06:20;18.30;99.90
11083;DHT22;5595;50.186;8.468;2022-10-17T11:08:58;18.40;99.90
11083;DHT22;5595;50.186;8.468;2022-10-17T11:11:32;18.50;99.90
11083;DHT22;5595;50.186;8.468;2022-10-17T11:14:09;18.60;99.90
11083;DHT22;5595;50.186;8.468;2022-10-17T11:16:44;18.60;99.90
11083;DHT22;5595;50.186;8.468;2022-10-17T11:19:17;18.60;99.90
11083;DHT22;5595;50.186;8.468;2022-10-17T11:21:59;18.60;99.90
11083;DHT22;5595;50.186;8.468;2022-10-17T11:24:34;18.60;99.90
11083;DHT22;5595;50.186;8.468;2022-10-17T11:27:05;18.60;99.90
11083;DHT22;5595;50.186;8.468;2022-10-17T11:29:35;18.60;99.90
11083;DHT22;5595;50.186;8.468;2022-10-17T11:32:07;18.60;99.90
11083;DHT22;5595;50.186;8.468;2022-10-17T11:34:40;18.80;99.90
11083;DHT22;5595;50.186;8.468;2022-10-17T11:37:14;18.80;99.90
11083;DHT22;5595;50.186;8.468;2022-10-17T11:39:44;19.00;99.90
11083;DHT22;5595;50.186;8.468;2022-10-17T11:42:18;19.10;99.90
11083;DHT22;5595;50.186;8.468;2022-10-17T11:44:48;19.20;99.90
11083;DHT22;5595;50.186;8.468;2022-10-17T11:47:28;19.30;99.90
11083;DHT22;5595;50.186;8.468;2022-10-17T11:50:02;19.40;99.90
11083;DHT22;5595;50.186;8.468;2022-10-17T11:52:41;19.50;99.90
11083;DHT22;5595;50.186;8.468;2022-10-17T11:55:16;19.60;99.90
11083;DHT22;5595;50.186;8.468;2022-10-17T11:57:55;19.60;99.90
11083;DHT22;5595;50.186;8.468;2022-10-17T12:00:33;19.80;99.90
11083;DHT22;5595;50.186;8.468;2022-10-17T12:03:15;19.90;99.90
11083;DHT22;5595;50.186;8.468;2022-10-17T12:05:49;20.10;99.90
11083;DHT22;5595;50.186;8.468;2022-10-17T12:08:27;20.20;99.90
11083;DHT22;5595;50.186;8.468;2022-10-17T12:11:00;20.30;99.90
11083;DHT22;5595;50.186;8.468;2022-10-17T12:13:52;20.30;99.90
11083;DHT22;5595;50.186;8.468;2022-10-17T12:16:47;20.30;99.90
11083;DHT22;5595;50.186;8.468;2022-10-17T12:19:22;20.20;99.90
11083;DHT22;5595;50.186;8.468;2022-10-17T12:21:56;20.10;99.90
11083;DHT22;5595;50.186;8.468;2022-10-17T12:24:34;20.10;99.90
11083;DHT22;5595;50.186;8.468;2022-10-17T12:27:31;20.10;99.90
11083;DHT22;5595;50.186;8.468;2022-10-17T12:30:00;20.20;99.90
11083;DHT22;5595;50.186;8.468;2022-10-17T12:32:28;20.30;99.90
11083;DHT22;5595;50.186;8.468;2022-10-17T12:34:56;20.30;99.90
11083;DHT22;5595;50.186;8.468;2022-10-17T12:41:00;20.50;99.90
11083;DHT22;5595;50.186;8.468;2022-10-17T12:43:55;20.60;99.90
11083;DHT22;5595;50.186;8.468;2022-10-17T12:46:54;20.60;99.90
11083;DHT22;5595;50.186;8.468;2022-10-17T12:49:39;20.80;99.90
11083;DHT22;5595;50.186;8.468;2022-10-17T12:52:26;21.00;99.90
11083;DHT22;5595;50.186;8.468;2022-10-17T12:55:05;21.10;99.90
11083;DHT22;5595;50.186;8.468;2022-10-17T12:57:38;21.10;99.90
11083;DHT22;5595;50.186;8.468;2022-10-17T13:00:16;21.10;99.90
11083;DHT22;5595;50.186;8.468;2022-10-17T13:02:45;21.20;99.90
11083;DHT22;5595;50.186;8.468;2022-10-17T13:05:17;21.10;99.90
11083;DHT22;5595;50.186;8.468;2022-10-17T13:07:47;21.00;99.90
11083;DHT22;5595;50.186;8.468;2022-10-17T13:10:20;20.90;99.90
11083;DHT22;5595;50.186;8.468;2022-10-17T13:12:50;20.80;99.90
11083;DHT22;5595;50.186;8.468;2022-10-17T13:15:22;20.70;99.90
11083;DHT22;5595;50.186;8.468;2022-10-17T13:17:57;20.60;99.90
11083;DHT22;5595;50.186;8.468;2022-10-17T13:20:28;20.70;99.90
11083;DHT22;5595;50.186;8.468;2022-10-17T13:22:56;20.60;99.90
11083;DHT22;5595;50.186;8.468;2022-10-17T13:25:26;20.60;99.90
11083;DHT22;5595;50.186;8.468;2022-10-17T13:28:10;20.70;99.90
11083;DHT22;5595;50.186;8.468;2022-10-17T13:30:45;21.00;99.90
11083;DHT22;5595;50.186;8.468;2022-10-17T13:33:31;21.10;99.90
11083;DHT22;5595;50.186;8.468;2022-10-17T13:36:00;21.20;99.90
11083;DHT22;5595;50.186;8.468;2022-10-17T13:38:31;21.20;99.90
11083;DHT22;5595;50.186;8.468;2022-10-17T13:41:01;21.10;99.90
11083;DHT22;5595;50.186;8.468;2022-10-17T13:43:32;21.10;99.90
11083;DHT22;5595;50.186;8.468;2022-10-17T13:46:01;21.10;99.90
11083;DHT22;5595;50.186;8.468;2022-10-17T13:48:32;21.10;99.90
11083;DHT22;5595;50.186;8.468;2022-10-17T13:51:02;21.00;99.90
11083;DHT22;5595;50.186;8.468;2022-10-17T13:53:33;21.00;99.90
11083;DHT22;5595;50.186;8.468;2022-10-17T13:56:05;21.00;99.90
11083;DHT22;5595;50.186;8.468;2022-10-17T13:58:40;21.00;99.90
11083;DHT22;5595;50.186;8.468;2022-10-17T14:01:08;21.00;99.90
11083;DHT22;5595;50.186;8.468;2022-10-17T14:03:35;20.90;99.90
11083;DHT22;5595;50.186;8.468;2022-10-17T14:06:13;20.90;99.90
11083;DHT22;5595;50.186;8.468;2022-10-17T14:08:55;20.90;99.90
11083;DHT22;5595;50.186;8.468;2022-10-17T14:11:29;20.80;99.90
11083;DHT22;5595;50.186;8.468;2022-10-17T14:14:03;20.70;99.90
11083;DHT22;5595;50.186;8.468;2022-10-17T14:16:37;20.70;99.90
11083;DHT22;5595;50.186;8.468;2022-10-17T14:19:15;20.60;99.90
11083;DHT22;5595;50.186;8.468;2022-10-17T14:21:47;20.60;99.90
11083;DHT22;5595;50.186;8.468;2022-10-17T14:24:29;20.60;99.90
11083;DHT22;5595;50.186;8.468;2022-10-17T14:26:58;20.50;99.90
11083;DHT22;5595;50.186;8.468;2022-10-17T14:29:28;20.40;99.90
11083;DHT22;5595;50.186;8.468;2022-10-17T14:32:01;20.30;99.90
11083;DHT22;5595;50.186;8.468;2022-10-17T14:34:34;20.30;99.90
11083;DHT22;5595;50.186;8.468;2022-10-17T14:37:08;20.20;99.90
11083;DHT22;5595;50.186;8.468;2022-10-17T14:39:37;20.20;99.90
11083;DHT22;5595;50.186;8.468;2022-10-17T14:42:04;20.10;99.90
11083;DHT22;5595;50.186;8.468;2022-10-17T14:44:35;20.10;99.90
11083;DHT22;5595;50.186;8.468;2022-10-17T14:47:04;20.10;99.90
11083;DHT22;5595;50.186;8.468;2022-10-17T14:49:35;20.10;99.90
11083;DHT22;5595;50.186;8.468;2022-10-17T14:52:27;20.10;99.90
11083;DHT22;5595;50.186;8.468;2022-10-17T14:54:55;20.10;99.90
11083;DHT22;5595;50.186;8.468;2022-10-17T14:57:26;20.20;99.90
11083;DHT22;5595;50.186;8.468;2022-10-17T14:59:57;20.20;99.90
11083;DHT22;5595;50.186;8.468;2022-10-17T15:02:25;20.30;99.90
11083;DHT22;5595;50.186;8.468;2022-10-17T15:04:52;20.30;99.90
11083;DHT22;5595;50.186;8.468;2022-10-17T15:07:20;20.30;99.90
11083;DHT22;5595;50.186;8.468;2022-10-17T15:09:50;20.30;99.90
11083;DHT22;5595;50.186;8.468;2022-10-17T15:12:20;20.30;99.90
11083;DHT22;5595;50.186;8.468;2022-10-17T15:14:48;20.30;99.90
11083;DHT22;5595;50.186;8.468;2022-10-17T15:17:25;20.40;99.90
11083;DHT22;5595;50.186;8.468;2022-10-17T15:19:54;20.40;99.90
11083;DHT22;5595;50.186;8.468;2022-10-17T15:22:22;20.40;99.90
11083;DHT22;5595;50.186;8.468;2022-10-17T15:24:49;20.40;99.90
11083;DHT22;5595;50.186;8.468;2022-10-17T15:27:17;20.40;99.90
11083;DHT22;5595;50.186;8.468;2022-10-17T15:29:44;20.40;99.90
11083;DHT22;5595;50.186;8.468;2022-10-17T15:32:12;20.20;99.90
11083;DHT22;5595;50.186;8.468;2022-10-17T15:34:41;20.20;99.90
11083;DHT22;5595;50.186;8.468;2022-10-17T15:37:15;20.00;99.90
11083;DHT22;5595;50.186;8.468;2022-10-17T15:39:43;19.90;99.90
11083;DHT22;5595;50.186;8.468;2022-10-17T15:45:34;19.70;99.90
11083;DHT22;5595;50.186;8.468;2022-10-17T15:51:25;19.30;99.90
11083;DHT22;5595;50.186;8.468;2022-10-17T15:53:52;19.20;99.90
11083;DHT22;5595;50.186;8.468;2022-10-17T15:56:22;19.00;99.90
11083;DHT22;5595;50.186;8.468;2022-10-17T16:02:11;18.80;99.90
11083;DHT22;5595;50.186;8.468;2022-10-17T16:04:39;18.70;99.90
11083;DHT22;5595;50.186;8.468;2022-10-17T16:07:07;18.60;99.90
11083;DHT22;5595;50.186;8.468;2022-10-17T16:09:35;18.50;99.90
11083;DHT22;5595;50.186;8.468;2022-10-17T16:12:03;18.40;99.90
11083;DHT22;5595;50.186;8.468;2022-10-17T16:14:31;18.30;99.90
11083;DHT22;5595;50.186;8.468;2022-10-17T16:16:58;18.20;99.90
11083;DHT22;5595;50.186;8.468;2022-10-17T16:19:25;18.10;99.90
11083;DHT22;5595;50.186;8.468;2022-10-17T16:21:55;18.00;99.90
11083;DHT22;5595;50.186;8.468;2022-10-17T16:24:24;17.90;99.90